Time;durP1;ratioP1;P1;durP2;ratioP2;P2;SDS_P1;SDS_P2;PMS_P1;PMS_P2;Temp;Humidity;BMP_temperature;BMP_pressure;BME280_temperature;BME280_humidity;BME280_pressure;Samples;Min_cycle;Max_cycle;Signal;HPM_P1;HPM_P2
2022/10/16 00:03:42;;;;;;;1.47;1.00;;;;;;;;;;8264556;28;20913;-63
2022/10/16 00:07:42;;;;;;;3.25;2.33;;;;;;;;;;8264404;28;20464;-63
2022/10/16 00:11:42;;;;;;;2.70;1.60;;;;;;;;;;8264176;28;20192;-63
2022/10/16 00:15:43;;;;;;;2.38;1.15;;;;;;;;;;8264084;28;20485;-63
2022/10/16 00:19:44;;;;;;;1.00;1.00;;;;;;;;;;8263974;28;20057;-63
2022/10/16 00:23:44;;;;;;;3.88;1.23;;;;;;;;;;8264093;28;20266;-63
2022/10/16 00:27:44;;;;;;;1.83;1.13;;;;;;;;;;8263531;28;20108;-63
2022/10/16 00:31:44;;;;;;;2.83;1.00;;;;;;;;;;8264467;28;20678;-63
2022/10/16 00:35:45;;;;;;;1.77;1.10;;;;;;;;;;8266172;28;20589;-63
2022/10/16 00:39:45;;;;;;;0.93;0.90;;;;;;;;;;8264182;28;20615;-63
2022/10/16 00:43:46;;;;;;;5.95;3.63;;;;;;;;;;8248218;28;20261;-63
2022/10/16 00:47:49;;;;;;;3.83;1.90;;;;;;;;;;8265274;28;20755;-63
2022/10/16 00:51:51;;;;;;;2.28;1.40;;;;;;;;;;8262615;28;20056;-63
2022/10/16 00:55:51;;;;;;;5.35;1.67;;;;;;;;;;8264099;28;20037;-63
2022/10/16 00:59:53;;;;;;;12.13;4.00;;;;;;;;;;8264295;28;20389;-63
2022/10/16 01:03:53;;;;;;;5.40;2.35;;;;;;;;;;8261160;28;20466;-63
2022/10/16 01:07:59;;;;;;;4.38;1.52;;;;;;;;;;8264085;28;20029;-63
2022/10/16 01:12:11;;;;;;;2.72;1.40;;;;;;;;;;8262080;28;20111;-62
2022/10/16 01:16:19;;;;;;;4.38;1.90;;;;;;;;;;8261511;28;20568;-63
2022/10/16 01:20:19;;;;;;;3.03;1.25;;;;;;;;;;8262152;28;20037;-63
2022/10/16 01:24:39;;;;;;;1.80;1.30;;;;;;;;;;8261472;28;20498;-63
2022/10/16 01:29:00;;;;;;;1.73;1.10;;;;;;;;;;8263142;28;20087;-63
2022/10/16 01:33:08;;;;;;;1.20;1.20;;;;;;;;;;8261705;28;20113;-63
2022/10/16 01:37:11;;;;;;;5.75;1.05;;;;;;;;;;8262616;28;20884;-63
2022/10/16 01:41:15;;;;;;;2.00;0.90;;;;;;;;;;8262101;28;20115;-63
2022/10/16 01:45:17;;;;;;;0.60;0.60;;;;;;;;;;8262974;28;20018;-63
2022/10/16 01:49:18;;;;;;;0.80;0.52;;;;;;;;;;8263500;28;20045;-63
2022/10/16 01:53:20;;;;;;;1.02;0.47;;;;;;;;;;8261256;28;20545;-63
2022/10/16 01:57:21;;;;;;;0.63;0.60;;;;;;;;;;8261296;28;20520;-63
2022/10/16 02:01:22;;;;;;;0.50;0.50;;;;;;;;;;8260250;28;20030;-63
2022/10/16 02:05:37;;;;;;;2.40;0.50;;;;;;;;;;8262318;28;20026;-63
2022/10/16 02:09:38;;;;;;;0.50;0.50;;;;;;;;;;8260386;28;20025;-63
2022/10/16 02:13:44;;;;;;;0.98;0.65;;;;;;;;;;8259384;28;20033;-63
2022/10/16 02:17:44;;;;;;;0.57;0.50;;;;;;;;;;8260338;28;20670;-63
2022/10/16 02:21:55;;;;;;;1.70;0.63;;;;;;;;;;8261677;28;20029;-63
2022/10/16 02:25:59;;;;;;;0.60;0.60;;;;;;;;;;8263171;28;20026;-63
2022/10/16 02:34:53;;;;;;;;;;;;;;;;;;8267130;28;20049;-63
2022/10/16 02:38:54;;;;;;;2.78;0.80;;;;;;;;;;8268255;28;19917;-63
2022/10/16 02:42:55;;;;;;;1.63;0.90;;;;;;;;;;8267921;28;20025;-63
2022/10/16 02:46:55;;;;;;;3.17;1.00;;;;;;;;;;8269241;28;20107;-63
2022/10/16 02:50:56;;;;;;;1.30;0.85;;;;;;;;;;8267742;28;20021;-63
2022/10/16 02:54:57;;;;;;;1.73;0.98;;;;;;;;;;8264829;28;20052;-63
2022/10/16 02:58:57;;;;;;;1.15;0.90;;;;;;;;;;8267598;28;20033;-63
2022/10/16 03:02:57;;;;;;;1.50;0.82;;;;;;;;;;8266740;28;20050;-63
2022/10/16 03:06:57;;;;;;;1.77;0.90;;;;;;;;;;8275910;28;20014;-63
2022/10/16 03:10:58;;;;;;;1.42;0.90;;;;;;;;;;8273226;28;20040;-63
2022/10/16 03:14:58;;;;;;;2.63;0.80;;;;;;;;;;8276702;28;20033;-63
2022/10/16 03:18:58;;;;;;;1.48;0.80;;;;;;;;;;8271954;28;20180;-63
2022/10/16 03:22:58;;;;;;;0.80;0.80;;;;;;;;;;8273687;28;20017;-63
2022/10/16 03:26:59;;;;;;;2.50;0.90;;;;;;;;;;8273697;28;20026;-63
2022/10/16 03:30:59;;;;;;;0.85;0.80;;;;;;;;;;8274629;28;20045;-63
2022/10/16 03:34:59;;;;;;;0.80;0.80;;;;;;;;;;8273852;28;20021;-63
2022/10/16 03:38:59;;;;;;;1.90;0.65;;;;;;;;;;8275132;28;20032;-63
2022/10/16 03:42:59;;;;;;;0.85;0.80;;;;;;;;;;8275514;28;20026;-63
2022/10/16 03:46:59;;;;;;;0.77;0.70;;;;;;;;;;8273279;28;20053;-63
2022/10/16 03:51:00;;;;;;;1.52;0.90;;;;;;;;;;8276142;28;20032;-63
2022/10/16 03:55:00;;;;;;;2.63;1.10;;;;;;;;;;8272065;28;20013;-63
2022/10/16 03:59:00;;;;;;;2.15;1.40;;;;;;;;;;8273041;28;20033;-63
2022/10/16 04:03:00;;;;;;;1.58;1.45;;;;;;;;;;8273109;28;21032;-63
2022/10/16 04:07:01;;;;;;;2.03;1.70;;;;;;;;;;8272338;28;20553;-63
2022/10/16 04:11:01;;;;;;;1.95;1.77;;;;;;;;;;8272889;28;20276;-63
2022/10/16 04:15:01;;;;;;;3.25;1.80;;;;;;;;;;8270507;28;20571;-62
2022/10/16 04:19:01;;;;;;;3.17;1.60;;;;;;;;;;8275076;28;20999;-62
2022/10/16 04:23:02;;;;;;;2.50;1.60;;;;;;;;;;8272676;28;20141;-62
2022/10/16 04:27:02;;;;;;;4.07;1.55;;;;;;;;;;8274164;28;20509;-63
2022/10/16 04:31:06;;;;;;;8.70;1.53;;;;;;;;;;8273077;28;20569;-63
2022/10/16 04:35:07;;;;;;;1.83;1.40;;;;;;;;;;8270415;28;20075;-63
2022/10/16 04:39:07;;;;;;;1.70;1.58;;;;;;;;;;8274081;28;20022;-62
2022/10/16 04:43:07;;;;;;;3.88;1.77;;;;;;;;;;8271620;28;20036;-63
2022/10/16 04:47:07;;;;;;;5.32;1.98;;;;;;;;;;8272588;28;20072;-62
2022/10/16 04:51:08;;;;;;;2.90;1.73;;;;;;;;;;8271433;28;20784;-63
2022/10/16 04:55:08;;;;;;;5.00;1.70;;;;;;;;;;8272139;28;20071;-63
2022/10/16 04:59:09;;;;;;;1.70;1.52;;;;;;;;;;8270793;28;20041;-63
2022/10/16 05:03:09;;;;;;;2.55;1.38;;;;;;;;;;8271507;28;20033;-63
2022/10/16 05:07:09;;;;;;;4.87;1.60;;;;;;;;;;8270296;28;20030;-63
2022/10/16 05:11:09;;;;;;;1.85;1.42;;;;;;;;;;8266865;28;20298;-63
2022/10/16 05:15:10;;;;;;;2.80;1.50;;;;;;;;;;8266758;28;20448;-63
2022/10/16 05:19:10;;;;;;;2.47;1.20;;;;;;;;;;8272104;28;20370;-63
2022/10/16 05:23:11;;;;;;;3.17;1.33;;;;;;;;;;8269422;28;20065;-62
2022/10/16 05:27:18;;;;;;;3.70;1.40;;;;;;;;;;8266937;28;20026;-63
2022/10/16 05:31:18;;;;;;;1.95;1.60;;;;;;;;;;8266789;28;20041;-63
2022/10/16 05:35:18;;;;;;;3.58;1.23;;;;;;;;;;8266007;28;20461;-63
2022/10/16 05:39:19;;;;;;;0.77;0.77;;;;;;;;;;8267373;28;20030;-63
2022/10/16 05:43:19;;;;;;;2.47;0.90;;;;;;;;;;8265949;28;20263;-63
2022/10/16 05:47:20;;;;;;;1.63;0.95;;;;;;;;;;8267097;28;20841;-63
2022/10/16 05:51:20;;;;;;;2.45;0.98;;;;;;;;;;8265215;28;20040;-63
2022/10/16 05:55:21;;;;;;;1.55;1.00;;;;;;;;;;8269610;28;20782;-63
2022/10/16 05:59:21;;;;;;;1.58;1.05;;;;;;;;;;8268246;28;20075;-63
2022/10/16 06:03:21;;;;;;;3.53;1.58;;;;;;;;;;8266988;28;20026;-63
2022/10/16 06:07:22;;;;;;;3.58;2.00;;;;;;;;;;8267723;28;20034;-64
2022/10/16 06:11:25;;;;;;;2.20;1.95;;;;;;;;;;8267447;28;20259;-63
2022/10/16 06:15:25;;;;;;;0.95;0.90;;;;;;;;;;8268265;28;20084;-63
2022/10/16 06:19:25;;;;;;;1.65;1.00;;;;;;;;;;8262620;28;20109;-63
2022/10/16 06:23:28;;;;;;;3.35;1.08;;;;;;;;;;8260594;28;20025;-63
2022/10/16 06:27:28;;;;;;;1.17;0.90;;;;;;;;;;8259689;28;20166;-62
2022/10/16 06:31:30;;;;;;;1.10;1.00;;;;;;;;;;8262174;28;20037;-63
2022/10/16 06:35:31;;;;;;;6.47;1.10;;;;;;;;;;8262246;28;20343;-63
2022/10/16 06:39:32;;;;;;;1.42;1.05;;;;;;;;;;8267319;28;20036;-63
2022/10/16 06:43:32;;;;;;;1.30;1.00;;;;;;;;;;8272034;28;20905;-63
2022/10/16 06:47:32;;;;;;;1.05;0.90;;;;;;;;;;8271646;28;20774;-63
2022/10/16 06:51:34;;;;;;;0.90;0.90;;;;;;;;;;8273112;28;20037;-63
2022/10/16 06:55:34;;;;;;;4.55;1.40;;;;;;;;;;8271791;28;20091;-63
2022/10/16 06:59:34;;;;;;;1.63;1.20;;;;;;;;;;8274777;28;20029;-63
2022/10/16 07:03:41;;;;;;;2.17;1.27;;;;;;;;;;8271507;28;20033;-63
2022/10/16 07:07:41;;;;;;;2.53;1.23;;;;;;;;;;8271804;28;20205;-63
2022/10/16 07:11:42;;;;;;;2.25;1.30;;;;;;;;;;8271481;28;20727;-62
2022/10/16 07:15:42;;;;;;;9.88;7.53;;;;;;;;;;8271548;28;20088;-62
2022/10/16 07:19:42;;;;;;;4.03;2.57;;;;;;;;;;8272075;28;20521;-63
2022/10/16 07:23:43;;;;;;;1.85;1.70;;;;;;;;;;8271083;28;21240;-63
2022/10/16 07:27:43;;;;;;;1.83;1.10;;;;;;;;;;8270550;28;20454;-63
2022/10/16 07:31:43;;;;;;;5.18;1.20;;;;;;;;;;8269200;28;20048;-63
2022/10/16 07:35:48;;;;;;;3.00;1.67;;;;;;;;;;8271558;28;20036;-63
2022/10/16 07:39:48;;;;;;;1.95;1.40;;;;;;;;;;8268436;28;20337;-63
2022/10/16 07:43:49;;;;;;;1.38;1.02;;;;;;;;;;8271168;28;20848;-63
2022/10/16 07:47:49;;;;;;;4.63;1.20;;;;;;;;;;8267687;28;20041;-63
2022/10/16 07:51:50;;;;;;;5.18;1.30;;;;;;;;;;8267631;28;20021;-63
2022/10/16 07:55:50;;;;;;;1.85;1.00;;;;;;;;;;8265353;28;20034;-63
2022/10/16 07:59:50;;;;;;;3.55;1.15;;;;;;;;;;8264996;28;20029;-63
2022/10/16 08:03:51;;;;;;;3.65;1.23;;;;;;;;;;8265118;28;20032;-63
2022/10/16 08:07:51;;;;;;;3.05;1.10;;;;;;;;;;8266122;28;20026;-63
2022/10/16 08:11:52;;;;;;;1.98;1.20;;;;;;;;;;8265880;28;20123;-63
2022/10/16 08:15:53;;;;;;;5.10;1.30;;;;;;;;;;8264775;28;20033;-63
2022/10/16 08:19:53;;;;;;;1.67;1.50;;;;;;;;;;8273009;28;20290;-63
2022/10/16 08:23:54;;;;;;;2.60;1.45;;;;;;;;;;8263393;28;20223;-63
2022/10/16 08:27:55;;;;;;;4.13;1.52;;;;;;;;;;8265661;28;20574;-63
2022/10/16 08:31:55;;;;;;;4.68;1.40;;;;;;;;;;8263392;28;20790;-64
2022/10/16 08:35:55;;;;;;;5.45;4.43;;;;;;;;;;8262127;28;20025;-63
2022/10/16 08:39:56;;;;;;;7.38;5.15;;;;;;;;;;8261780;28;20037;-63
2022/10/16 08:44:15;;;;;;;7.60;4.57;;;;;;;;;;8262907;28;20665;-63
2022/10/16 08:48:19;;;;;;;7.90;4.63;;;;;;;;;;8263887;28;20493;-63
2022/10/16 08:52:20;;;;;;;9.98;5.22;;;;;;;;;;8263966;28;20593;-64
2022/10/16 08:56:20;;;;;;;10.65;5.50;;;;;;;;;;8260414;28;20447;-64
2022/10/16 09:00:20;;;;;;;10.05;5.43;;;;;;;;;;8263251;28;20037;-64
2022/10/16 09:04:39;;;;;;;22.63;15.60;;;;;;;;;;8263760;28;20076;-64
2022/10/16 09:08:47;;;;;;;9.02;6.95;;;;;;;;;;8263692;28;20280;-63
2022/10/16 09:13:12;;;;;;;4.40;3.40;;;;;;;;;;8262738;28;20579;-64
2022/10/16 09:17:12;;;;;;;6.35;2.58;;;;;;;;;;8261780;28;20030;-64
2022/10/16 09:21:15;;;;;;;3.35;2.10;;;;;;;;;;8262952;28;20026;-64
2022/10/16 09:25:17;;;;;;;3.50;1.50;;;;;;;;;;8262269;28;20028;-64
2022/10/16 09:29:21;;;;;;;11.45;7.80;;;;;;;;;;8261936;28;20040;-63
2022/10/16 09:33:28;;;;;;;2.58;1.75;;;;;;;;;;8261242;28;20046;-64
2022/10/16 09:37:28;;;;;;;5.22;3.05;;;;;;;;;;8261696;28;20771;-64
2022/10/16 09:41:29;;;;;;;2.63;2.10;;;;;;;;;;8262113;28;20045;-64
2022/10/16 09:45:29;;;;;;;1.30;1.20;;;;;;;;;;8262314;28;20319;-64
2022/10/16 09:49:29;;;;;;;1.80;1.23;;;;;;;;;;8262326;28;20576;-64
2022/10/16 09:53:40;;;;;;;2.10;1.30;;;;;;;;;;8260646;28;20346;-64
2022/10/16 09:57:53;;;;;;;2.17;1.48;;;;;;;;;;8261152;28;20068;-63
2022/10/16 10:01:54;;;;;;;2.15;1.30;;;;;;;;;;8268802;28;20049;-63
2022/10/16 10:05:55;;;;;;;2.88;1.30;;;;;;;;;;8261310;28;20482;-63
2022/10/16 10:09:56;;;;;;;1.97;1.50;;;;;;;;;;8260752;28;20455;-63
2022/10/16 10:14:03;;;;;;;2.55;1.30;;;;;;;;;;8260919;28;20037;-63
2022/10/16 10:18:15;;;;;;;2.55;1.30;;;;;;;;;;8259990;28;20510;-63
2022/10/16 10:22:39;;;;;;;2.50;1.40;;;;;;;;;;8260490;28;20033;-64
2022/10/16 10:26:41;;;;;;;1.60;1.50;;;;;;;;;;8261617;28;20046;-63
2022/10/16 10:30:53;;;;;;;2.78;1.30;;;;;;;;;;8260012;28;20279;-64
2022/10/16 10:35:02;;;;;;;2.58;1.33;;;;;;;;;;8261202;28;20494;-63
2022/10/16 10:39:12;;;;;;;1.48;1.30;;;;;;;;;;8258964;28;20029;-63
2022/10/16 10:43:31;;;;;;;1.55;1.45;;;;;;;;;;8260787;28;20048;-63
2022/10/16 10:47:41;;;;;;;2.70;1.85;;;;;;;;;;8260308;28;20580;-63
2022/10/16 10:51:59;;;;;;;3.35;1.70;;;;;;;;;;8258220;28;20045;-63
2022/10/16 10:56:22;;;;;;;1.88;1.45;;;;;;;;;;8260472;28;20116;-63
2022/10/16 11:00:34;;;;;;;3.92;1.25;;;;;;;;;;8260721;28;20587;-64
2022/10/16 11:04:40;;;;;;;2.17;1.35;;;;;;;;;;8259834;28;20033;-64
2022/10/16 11:08:45;;;;;;;1.88;1.40;;;;;;;;;;8261089;28;20018;-64
2022/10/16 11:12:47;;;;;;;2.55;1.30;;;;;;;;;;8261131;28;20021;-64
2022/10/16 11:16:51;;;;;;;1.37;1.33;;;;;;;;;;8261003;28;20454;-63
2022/10/16 11:21:02;;;;;;;3.10;1.40;;;;;;;;;;8257878;28;20394;-64
2022/10/16 11:25:06;;;;;;;1.50;1.40;;;;;;;;;;8259656;28;20021;-63
2022/10/16 11:29:10;;;;;;;1.33;1.15;;;;;;;;;;8266459;28;20025;-64
2022/10/16 11:33:16;;;;;;;5.88;1.88;;;;;;;;;;8264951;28;20046;-63
2022/10/16 11:37:16;;;;;;;1.50;1.35;;;;;;;;;;8266615;28;20474;-63
2022/10/16 11:41:33;;;;;;;1.60;1.50;;;;;;;;;;8264631;28;20112;-64
2022/10/16 11:45:38;;;;;;;1.95;1.10;;;;;;;;;;8265077;28;20589;-64
2022/10/16 11:49:40;;;;;;;2.67;1.30;;;;;;;;;;8266192;28;20026;-64
2022/10/16 11:53:59;;;;;;;1.40;1.30;;;;;;;;;;8264289;28;20556;-64
2022/10/16 11:58:06;;;;;;;3.53;1.40;;;;;;;;;;8265224;28;20021;-63
2022/10/16 12:02:22;;;;;;;1.45;1.20;;;;;;;;;;8262473;28;20145;-63
2022/10/16 12:06:25;;;;;;;3.42;1.60;;;;;;;;;;8265784;28;20104;-63
2022/10/16 12:10:27;;;;;;;3.08;1.40;;;;;;;;;;8263791;28;20067;-63
2022/10/16 12:14:27;;;;;;;3.42;1.70;;;;;;;;;;8264919;28;20030;-64
2022/10/16 12:18:28;;;;;;;9.00;1.63;;;;;;;;;;8264529;28;20429;-63
2022/10/16 12:22:30;;;;;;;4.72;1.67;;;;;;;;;;8263641;28;20037;-63
2022/10/16 12:26:37;;;;;;;4.90;1.60;;;;;;;;;;8264729;28;20542;-63
2022/10/16 12:30:37;;;;;;;4.82;1.67;;;;;;;;;;8263097;28;20137;-64
2022/10/16 12:34:40;;;;;;;5.45;1.65;;;;;;;;;;8262290;28;20152;-63
2022/10/16 12:38:50;;;;;;;1.92;1.40;;;;;;;;;;8263854;28;20057;-64
2022/10/16 12:42:50;;;;;;;1.45;1.30;;;;;;;;;;8262896;28;20936;-63
2022/10/16 12:46:51;;;;;;;2.15;1.30;;;;;;;;;;8263792;28;20038;-63
2022/10/16 12:50:51;;;;;;;2.33;1.30;;;;;;;;;;8262263;28;20033;-64
2022/10/16 12:54:51;;;;;;;2.42;1.38;;;;;;;;;;8263024;28;20365;-63
2022/10/16 12:59:10;;;;;;;4.00;1.20;;;;;;;;;;8263621;28;20922;-63
2022/10/16 13:03:29;;;;;;;1.63;1.45;;;;;;;;;;8264015;28;20033;-63
2022/10/16 13:07:50;;;;;;;3.13;1.80;;;;;;;;;;8262337;28;20441;-63
2022/10/16 13:12:05;;;;;;;7.13;2.00;;;;;;;;;;8260984;28;20192;-63
2022/10/16 13:16:05;;;;;;;4.68;2.20;;;;;;;;;;8261168;28;20509;-63
2022/10/16 13:20:18;;;;;;;6.65;1.70;;;;;;;;;;8263217;28;20021;-63
2022/10/16 13:24:37;;;;;;;3.00;1.48;;;;;;;;;;8264007;28;20265;-63
2022/10/16 13:28:38;;;;;;;4.88;1.73;;;;;;;;;;8262605;28;20471;-63
2022/10/16 13:32:39;;;;;;;4.68;3.42;;;;;;;;;;8261152;28;20116;-63
2022/10/16 13:36:43;;;;;;;5.40;2.20;;;;;;;;;;8261560;28;20388;-63
2022/10/16 13:40:51;;;;;;;4.75;1.88;;;;;;;;;;8263285;28;20029;-63
2022/10/16 13:44:53;;;;;;;2.08;1.50;;;;;;;;;;8263736;28;20611;-63
2022/10/16 13:49:00;;;;;;;3.67;1.73;;;;;;;;;;8260428;28;20325;-63
2022/10/16 13:53:04;;;;;;;5.15;1.50;;;;;;;;;;8260993;28;20022;-64
2022/10/16 13:57:06;;;;;;;2.58;1.50;;;;;;;;;;8263464;28;20499;-63
2022/10/16 14:01:20;;;;;;;3.38;1.20;;;;;;;;;;8261364;28;20037;-63
2022/10/16 14:05:20;;;;;;;1.67;1.30;;;;;;;;;;8261690;28;20456;-63
2022/10/16 14:09:22;;;;;;;1.50;1.40;;;;;;;;;;8260583;28;20049;-62
2022/10/16 14:13:31;;;;;;;2.95;1.40;;;;;;;;;;8261789;28;20295;-63
2022/10/16 14:17:34;;;;;;;1.48;1.33;;;;;;;;;;8260972;28;20574;-63
2022/10/16 14:21:34;;;;;;;2.95;1.50;;;;;;;;;;8263982;28;20384;-63
2022/10/16 14:25:34;;;;;;;4.97;1.50;;;;;;;;;;8260381;28;20168;-63
2022/10/16 14:29:35;;;;;;;3.22;1.70;;;;;;;;;;8256755;28;20045;-63
2022/10/16 14:33:36;;;;;;;2.90;1.95;;;;;;;;;;8260649;28;20037;-63
2022/10/16 14:37:36;;;;;;;4.68;1.67;;;;;;;;;;8260105;28;20366;-64
2022/10/16 14:41:44;;;;;;;4.97;1.70;;;;;;;;;;8269091;28;20025;-64
2022/10/16 14:45:51;;;;;;;8.52;2.45;;;;;;;;;;8267720;28;20122;-63
2022/10/16 14:49:52;;;;;;;5.05;2.70;;;;;;;;;;8260295;28;20176;-63
2022/10/16 14:53:53;;;;;;;4.10;2.30;;;;;;;;;;8258934;28;20026;-63
2022/10/16 14:57:53;;;;;;;3.95;2.10;;;;;;;;;;8261127;28;20526;-63
2022/10/16 15:01:53;;;;;;;2.85;2.40;;;;;;;;;;8265110;28;20040;-63
2022/10/16 15:05:53;;;;;;;4.53;2.78;;;;;;;;;;8264752;28;20028;-63
2022/10/16 15:09:54;;;;;;;6.88;2.35;;;;;;;;;;8266548;28;20311;-63
2022/10/16 15:13:54;;;;;;;3.75;2.75;;;;;;;;;;8266349;28;20033;-63
2022/10/16 15:17:56;;;;;;;9.52;5.30;;;;;;;;;;8266081;28;20045;-63
2022/10/16 15:21:56;;;;;;;9.85;5.65;;;;;;;;;;8264954;28;20486;-63
2022/10/16 15:25:57;;;;;;;6.47;3.10;;;;;;;;;;8267430;28;20049;-63
2022/10/16 15:29:57;;;;;;;7.47;3.22;;;;;;;;;;8266408;28;20361;-63
2022/10/16 15:34:06;;;;;;;7.68;3.47;;;;;;;;;;8264720;28;20352;-63
2022/10/16 15:38:09;;;;;;;9.02;3.25;;;;;;;;;;8268163;28;20640;-63
2022/10/16 15:42:10;;;;;;;8.57;4.55;;;;;;;;;;8263980;28;20021;-63
2022/10/16 15:46:12;;;;;;;7.13;3.40;;;;;;;;;;8267496;28;20547;-63
2022/10/16 15:50:13;;;;;;;8.68;3.05;;;;;;;;;;8265208;28;20145;-63
2022/10/16 15:54:13;;;;;;;3.17;2.60;;;;;;;;;;8266630;28;20201;-63
2022/10/16 15:58:13;;;;;;;2.40;2.20;;;;;;;;;;8265827;28;20553;-63
2022/10/16 16:02:14;;;;;;;6.20;2.40;;;;;;;;;;8265685;28;20418;-63
2022/10/16 16:06:15;;;;;;;7.40;3.40;;;;;;;;;;8265712;28;20022;-62
2022/10/16 16:10:15;;;;;;;4.95;4.43;;;;;;;;;;8265517;28;20025;-63
2022/10/16 16:14:15;;;;;;;9.45;3.88;;;;;;;;;;8266793;28;20029;-63
2022/10/16 16:18:15;;;;;;;5.00;3.60;;;;;;;;;;8263734;28;20079;-63
2022/10/16 16:22:16;;;;;;;4.50;3.55;;;;;;;;;;8264039;28;20033;-63
2022/10/16 16:26:26;;;;;;;4.72;4.25;;;;;;;;;;8265445;28;20028;-62
2022/10/16 16:30:26;;;;;;;5.43;3.42;;;;;;;;;;8265431;28;20064;-64
2022/10/16 16:34:27;;;;;;;5.50;2.90;;;;;;;;;;8264950;28;20280;-63
2022/10/16 16:38:27;;;;;;;5.05;2.80;;;;;;;;;;8264175;28;20030;-63
2022/10/16 16:42:27;;;;;;;3.22;2.92;;;;;;;;;;8264935;28;20063;-63
2022/10/16 16:46:28;;;;;;;7.85;3.45;;;;;;;;;;8264839;28;20034;-63
2022/10/16 16:50:28;;;;;;;7.38;4.25;;;;;;;;;;8263528;28;20025;-63
2022/10/16 16:54:28;;;;;;;12.02;9.52;;;;;;;;;;8263957;28;20057;-63
2022/10/16 16:58:28;;;;;;;16.45;10.80;;;;;;;;;;8264276;28;20243;-63
2022/10/16 17:02:29;;;;;;;29.57;22.97;;;;;;;;;;8264471;28;20591;-63
2022/10/16 17:06:29;;;;;;;32.33;22.08;;;;;;;;;;8266418;28;20812;-63
2022/10/16 17:10:29;;;;;;;25.10;18.48;;;;;;;;;;8262551;28;20033;-63
2022/10/16 17:14:29;;;;;;;21.00;14.45;;;;;;;;;;8264117;28;20029;-63
2022/10/16 17:18:29;;;;;;;42.38;26.75;;;;;;;;;;8262709;28;20128;-63
2022/10/16 17:22:30;;;;;;;22.67;16.90;;;;;;;;;;8263349;28;20736;-63
2022/10/16 17:26:30;;;;;;;18.35;11.98;;;;;;;;;;8262433;28;20044;-63
2022/10/16 17:30:30;;;;;;;10.95;8.60;;;;;;;;;;8262013;28;20041;-63
2022/10/16 17:34:30;;;;;;;9.90;7.80;;;;;;;;;;8262516;28;20018;-63
2022/10/16 17:38:31;;;;;;;11.48;6.70;;;;;;;;;;8263972;28;20030;-63
2022/10/16 17:42:31;;;;;;;12.32;6.70;;;;;;;;;;8262836;28;20069;-63
2022/10/16 17:46:31;;;;;;;7.28;4.57;;;;;;;;;;8262127;28;20124;-63
2022/10/16 17:50:31;;;;;;;9.87;4.53;;;;;;;;;;8261241;28;20030;-63
2022/10/16 17:54:32;;;;;;;7.75;4.50;;;;;;;;;;8261274;28;20261;-63
2022/10/16 17:58:32;;;;;;;8.77;5.57;;;;;;;;;;8263039;28;20025;-63
2022/10/16 18:02:33;;;;;;;10.43;6.20;;;;;;;;;;8261529;28;20376;-63
2022/10/16 18:06:33;;;;;;;5.25;3.60;;;;;;;;;;8260827;28;20092;-63
2022/10/16 18:10:33;;;;;;;4.43;3.20;;;;;;;;;;8260156;28;20041;-63
2022/10/16 18:14:34;;;;;;;7.63;4.40;;;;;;;;;;8261669;28;20564;-63
2022/10/16 18:18:35;;;;;;;11.30;4.80;;;;;;;;;;8260494;28;20073;-63
2022/10/16 18:22:35;;;;;;;6.03;4.28;;;;;;;;;;8261351;28;20076;-63
2022/10/16 18:26:35;;;;;;;6.88;4.28;;;;;;;;;;8261450;28;20021;-63
2022/10/16 18:30:35;;;;;;;5.78;4.38;;;;;;;;;;8260917;28;20512;-63
2022/10/16 18:34:36;;;;;;;7.05;3.70;;;;;;;;;;8261306;28;20131;-63
2022/10/16 18:38:36;;;;;;;4.30;3.08;;;;;;;;;;8259918;28;20026;-63
2022/10/16 18:42:36;;;;;;;6.93;2.90;;;;;;;;;;8260510;28;20542;-63
2022/10/16 18:46:37;;;;;;;4.70;2.78;;;;;;;;;;8258961;28;20764;-63
2022/10/16 18:50:37;;;;;;;3.28;2.83;;;;;;;;;;8259628;28;20091;-63
2022/10/16 18:54:37;;;;;;;5.35;2.70;;;;;;;;;;8261772;28;20461;-63
2022/10/16 18:58:40;;;;;;;4.30;2.63;;;;;;;;;;8261952;28;20478;-63
2022/10/16 19:02:40;;;;;;;6.22;2.67;;;;;;;;;;8259020;28;20081;-63
2022/10/16 19:06:42;;;;;;;4.05;2.17;;;;;;;;;;8260205;28;20444;-63
2022/10/16 19:10:42;;;;;;;4.53;3.03;;;;;;;;;;8260663;28;20033;-63
2022/10/16 19:14:42;;;;;;;3.63;2.40;;;;;;;;;;8260268;28;20033;-63
2022/10/16 19:18:42;;;;;;;4.47;2.20;;;;;;;;;;8260145;28;20443;-63
2022/10/16 19:22:55;;;;;;;5.15;2.40;;;;;;;;;;8261082;28;20462;-63
2022/10/16 19:26:56;;;;;;;4.95;2.25;;;;;;;;;;8256664;28;20022;-63
2022/10/16 19:31:00;;;;;;;3.85;2.35;;;;;;;;;;8260275;28;20625;-64
2022/10/16 19:35:00;;;;;;;;;;;;;;;;;;8260816;28;20052;-63
2022/10/16 19:39:02;;;;;;;3.38;2.17;;;;;;;;;;8259960;28;20371;-63
2022/10/16 19:43:02;;;;;;;4.20;2.22;;;;;;;;;;8259344;28;20101;-63
2022/10/16 19:47:03;;;;;;;5.28;2.30;;;;;;;;;;8260326;28;20310;-64
2022/10/16 19:51:03;;;;;;;3.40;2.20;;;;;;;;;;8265744;28;20409;-63
2022/10/16 19:55:04;;;;;;;7.37;2.50;;;;;;;;;;8267269;28;20022;-63
2022/10/16 19:59:05;;;;;;;4.85;2.30;;;;;;;;;;8266281;28;20660;-63
2022/10/16 20:03:05;;;;;;;5.95;2.55;;;;;;;;;;8263336;28;20401;-63
2022/10/16 20:07:05;;;;;;;3.42;2.40;;;;;;;;;;8266342;28;20121;-63
2022/10/16 20:11:09;;;;;;;5.07;2.22;;;;;;;;;;8266017;28;20406;-63
2022/10/16 20:15:09;;;;;;;2.53;2.00;;;;;;;;;;8263730;28;20117;-63
2022/10/16 20:19:10;;;;;;;2.90;2.00;;;;;;;;;;8264007;28;20996;-63
2022/10/16 20:23:10;;;;;;;5.75;1.90;;;;;;;;;;8264565;28;20824;-63
2022/10/16 20:27:10;;;;;;;4.70;1.90;;;;;;;;;;8265888;28;20421;-63
2022/10/16 20:31:17;;;;;;;3.92;1.98;;;;;;;;;;8262846;28;20061;-63
2022/10/16 20:35:17;;;;;;;2.28;2.08;;;;;;;;;;8264257;28;20033;-63
2022/10/16 20:39:17;;;;;;;3.25;2.00;;;;;;;;;;8264922;28;20513;-63
2022/10/16 20:43:19;;;;;;;2.77;1.77;;;;;;;;;;8264506;28;20021;-63
2022/10/16 20:47:19;;;;;;;2.20;1.83;;;;;;;;;;8264449;28;20072;-63
2022/10/16 20:51:26;;;;;;;6.60;2.20;;;;;;;;;;8263808;28;20026;-63
2022/10/16 20:55:27;;;;;;;2.75;1.75;;;;;;;;;;8262808;28;20033;-63
2022/10/16 20:59:27;;;;;;;2.55;2.20;;;;;;;;;;8263266;28;20056;-63
2022/10/16 21:03:28;;;;;;;2.58;2.10;;;;;;;;;;8261024;28;20034;-64
2022/10/16 21:07:28;;;;;;;2.00;1.80;;;;;;;;;;8263971;28;20224;-63
2022/10/16 21:11:30;;;;;;;4.22;2.10;;;;;;;;;;8263846;28;20565;-63
2022/10/16 21:15:30;;;;;;;2.75;2.10;;;;;;;;;;8262020;28;20125;-64
2022/10/16 21:19:31;;;;;;;4.13;2.03;;;;;;;;;;8263935;28;20589;-63
2022/10/16 21:23:32;;;;;;;3.95;2.05;;;;;;;;;;8264146;28;20460;-64
2022/10/16 21:27:39;;;;;;;2.28;1.80;;;;;;;;;;8261474;28;20550;-63
2022/10/16 21:31:39;;;;;;;4.40;1.80;;;;;;;;;;8262385;28;20500;-63
2022/10/16 21:35:39;;;;;;;2.97;1.90;;;;;;;;;;8263083;28;20048;-64
2022/10/16 21:39:40;;;;;;;4.35;1.80;;;;;;;;;;8261856;28;20032;-63
2022/10/16 21:43:40;;;;;;;2.33;1.80;;;;;;;;;;8260591;28;20223;-63
2022/10/16 21:47:40;;;;;;;2.53;1.65;;;;;;;;;;8260338;28;20444;-63
2022/10/16 21:51:42;;;;;;;3.17;1.90;;;;;;;;;;8263376;28;20486;-63
2022/10/16 21:55:42;;;;;;;2.13;1.75;;;;;;;;;;8262472;28;20282;-63
2022/10/16 21:59:43;;;;;;;4.85;2.13;;;;;;;;;;8260825;28;20029;-63
2022/10/16 22:03:43;;;;;;;6.72;1.92;;;;;;;;;;8258150;28;20034;-63
2022/10/16 22:07:43;;;;;;;4.30;1.98;;;;;;;;;;8260921;28;20611;-63
2022/10/16 22:11:44;;;;;;;4.50;2.00;;;;;;;;;;8261611;28;20041;-63
2022/10/16 22:15:50;;;;;;;5.80;1.90;;;;;;;;;;8262105;28;20137;-63
2022/10/16 22:19:50;;;;;;;5.18;2.30;;;;;;;;;;8261314;28;20032;-63
2022/10/16 22:23:51;;;;;;;2.40;2.03;;;;;;;;;;8260616;28;20574;-63
2022/10/16 22:27:51;;;;;;;2.78;1.75;;;;;;;;;;8260756;28;20569;-63
2022/10/16 22:31:51;;;;;;;2.72;1.73;;;;;;;;;;8260270;28;20478;-63
2022/10/16 22:35:52;;;;;;;3.08;1.98;;;;;;;;;;8260422;28;20417;-63
2022/10/16 22:39:52;;;;;;;2.35;1.80;;;;;;;;;;8260710;28;20060;-63
2022/10/16 22:43:52;;;;;;;2.72;1.85;;;;;;;;;;8258958;28;20034;-63
2022/10/16 22:47:52;;;;;;;2.30;1.77;;;;;;;;;;8261743;28;20391;-63
2022/10/16 22:51:52;;;;;;;5.53;2.30;;;;;;;;;;8260870;28;20521;-63
2022/10/16 22:55:53;;;;;;;4.07;1.88;;;;;;;;;;8260828;28;20117;-63
2022/10/16 22:59:53;;;;;;;4.80;2.10;;;;;;;;;;8260636;28;20022;-63
2022/10/16 23:03:53;;;;;;;7.30;1.90;;;;;;;;;;8259138;28;20038;-63
2022/10/16 23:07:54;;;;;;;2.78;1.90;;;;;;;;;;8260675;28;20037;-63
2022/10/16 23:11:54;;;;;;;6.13;1.90;;;;;;;;;;8260148;28;20497;-63
2022/10/16 23:15:54;;;;;;;5.03;1.92;;;;;;;;;;8260128;28;20600;-63
2022/10/16 23:19:54;;;;;;;2.55;1.73;;;;;;;;;;8258689;28;20036;-63
2022/10/16 23:23:54;;;;;;;4.00;1.75;;;;;;;;;;8266520;28;20029;-63
2022/10/16 23:27:55;;;;;;;3.25;1.80;;;;;;;;;;8266705;28;21116;-63
2022/10/16 23:31:56;;;;;;;3.67;2.08;;;;;;;;;;8265893;28;20074;-63
2022/10/16 23:35:56;;;;;;;6.18;2.03;;;;;;;;;;8264315;28;21483;-63
2022/10/16 23:39:56;;;;;;;6.78;1.65;;;;;;;;;;8266485;28;20037;-63
2022/10/16 23:43:56;;;;;;;4.45;1.65;;;;;;;;;;8265400;28;21355;-63
2022/10/16 23:47:56;;;;;;;4.20;1.90;;;;;;;;;;8266065;28;20088;-63
2022/10/16 23:51:57;;;;;;;1.95;1.65;;;;;;;;;;8266057;28;20061;-63
2022/10/16 23:55:57;;;;;;;3.58;1.80;;;;;;;;;;8264391;28;20191;-63
2022/10/16 23:59:57;;;;;;;4.68;1.90;;;;;;;;;;8265386;28;20018;-63
